EW6174 Weather Reports


Display with metric or nautical units.
time (UTC)temp
F
wind
direction
speed
MPH
gust
MPH
rain 1hr
in
rain 24hr
in
rain mn
in
humidity
%
barometer
mb
20190325031523 46 254 0.0 2.0 0.00 0.00 0.00 75 1017.2
20190325030005 46 254 0.0 0.0 0.00 0.00 0.00 75 1017.2
20190325023120 46 254 0.0 0.0 0.00 0.00 0.00 73 1017.4
20190325021628 46 254 0.0 1.0 0.00 0.00 0.00 73 1017.5
20190325020102 47 254 1.0 3.0 0.00 0.00 0.00 72 1017.6
20190325014558 47 254 0.0 0.0 0.00 0.00 0.00 71 1017.7
20190325013128 47 254 0.0 2.0 0.00 0.00 0.00 71 1017.9
20190325011642 47 254 1.0 2.0 0.00 0.00 0.00 70 1018.0
20190325010102 48 254 0.0 0.0 0.00 0.00 0.00 69 1018.2
20190325004613 48 254 0.0 1.0 0.00 0.00 0.00 69 1018.3
20190325003034 47 254 0.0 2.0 0.00 0.00 0.00 68 1018.4
20190325001541 47 254 1.0 3.0 0.00 0.00 0.00 68 1018.4
20190325000142 47 254 1.0 2.0 0.00 0.00 0.00 66 1018.6
20190324234534 47 254 0.0 2.0 0.00 0.00 0.00 65 1018.8
20190324233038 48 254 0.0 2.0 0.00 0.00 0.00 64 1018.7
20190324231553 48 219 0.0 0.0 0.00 0.00 0.00 62 1018.8
20190324230022 49 219 0.0 0.0 0.00 0.00 0.00 61 1019.0
20190324224514 50 219 0.0 0.0 0.00 0.00 0.00 62 1019.1
20190324223042 50 219 0.0 1.0 0.00 0.00 0.00 62 1019.2
20190324221544 50 219 0.0 2.0 0.00 0.00 0.00 62 1019.3
20190324220009 49 219 0.0 2.0 0.00 0.00 0.00 62 1019.3
20190324214514 50 219 0.0 2.0 0.00 0.00 0.00 61 1019.4
20190324213010 50 256 0.0 3.0 0.00 0.00 0.00 59 1019.4
20190324211526 51 121 0.0 0.0 0.00 0.00 0.00 57 1019.4
20190324210009 52 121 0.0 0.0 0.00 0.00 0.00 57 1019.5
20190324204535 52 121 0.0 0.0 0.00 0.00 0.00 59 1019.7
20190324203008 52 121 0.0 0.0 0.00 0.00 0.00 58 1019.9
20190324201505 53 247 0.0 0.0 0.00 0.00 0.00 57 1019.9
20190324200006 54 247 0.0 0.0 0.00 0.00 0.00 55 1019.9
20190324194507 55 247 0.0 0.0 0.00 0.00 0.00 53 1019.8
20190324193026 56 247 0.0 0.0 0.00 0.00 0.00 50 1019.8
20190324191502 57 247 0.0 0.0 0.00 0.00 0.00 48 1019.8
20190324190003 59 247 0.0 0.0 0.00 0.00 0.00 44 1019.8
20190324184512 60 247 0.0 0.0 0.00 0.00 0.00 40 1019.7
20190324183158 62 247 0.0 0.0 0.00 0.00 0.00 37 1019.7
20190324181717 63 247 0.0 0.0 0.00 0.00 0.00 34 1019.6
20190324180125 65 211 0.0 0.0 0.00 0.00 0.00 26 1019.5
20190324174659 67 211 0.0 1.0 0.00 0.00 0.00 23 1019.3
20190324173326 68 211 1.0 4.0 0.00 0.00 0.00 20 1019.3
20190324171713 68 227 2.0 6.0 0.00 0.00 0.00 21 1019.3
20190324170206 68 254 3.0 7.0 0.00 0.00 0.00 21 1019.4
20190324164707 68 257 3.0 8.0 0.00 0.00 0.00 23 1019.6
20190324163157 69 246 5.0 7.0 0.00 0.00 0.00 22 1019.8
20190324161723 69 232 4.0 8.0 0.00 0.00 0.00 24 1019.8
20190324160213 69 211 5.0 12.0 0.00 0.00 0.00 23 1020.0
20190324154751 70 254 6.0 12.0 0.00 0.00 0.00 20 1020.0
20190324153125 71 242 7.0 11.0 0.00 0.00 0.00 18 1020.0
20190324151728 71 283 5.0 12.0 0.00 0.00 0.00 20 1019.9
20190324150154 72 259 7.0 10.0 0.00 0.00 0.00 19 1020.1
20190324144537 72 271 6.0 11.0 0.00 0.00 0.00 21 1020.2
20190324143209 73 238 7.0 11.0 0.00 0.00 0.00 20 1020.3
20190324141538 73 246 6.0 13.0 0.00 0.00 0.00 20 1020.3
20190324140035 73 246 7.0 12.0 0.00 0.00 0.00 21 1020.4
20190324134525 73 214 6.0 12.0 0.00 0.00 0.00 22 1020.5
20190324133008 73 254 6.0 12.0 0.00 0.00 0.00 22 1020.6
20190324131505 73 291 6.0 13.0 0.00 0.00 0.00 21 1020.7
20190324130016 74 287 5.0 14.0 0.00 0.00 0.00 23 1020.8
20190324124636 74 257 4.0 14.0 0.00 0.00 0.00 22 1021.0
20190324123055 74 281 3.0 11.0 0.00 0.00 0.00 22 1021.2
20190324121553 74 355 2.0 8.0 0.00 0.00 0.00 22 1021.4
20190324120118 73 5 2.0 10.0 0.00 0.00 0.00 23 1021.7
20190324114553 73 254 2.0 7.0 0.00 0.00 0.00 22 1021.8
20190324113039 73 244 5.0 9.0 0.00 0.00 0.00 24 1022.0
20190324111552 72 249 1.0 7.0 0.00 0.00 0.00 24 1022.1
20190324110053 71 256 1.0 8.0 0.00 0.00 0.00 28 1022.3
20190324104606 71 271 1.0 3.0 0.00 0.00 0.00 28 1022.4
20190324103044 70 293 1.0 4.0 0.00 0.00 0.00 30 1022.5
20190324101534 69 355 1.0 3.0 0.00 0.00 0.00 29 1022.6
20190324100030 68 342 1.0 3.0 0.00 0.00 0.00 30 1022.7
20190324094659 67 322 0.0 3.0 0.00 0.00 0.00 32 1022.7
20190324093125 65 348 1.0 4.0 0.00 0.00 0.00 34 1022.8
20190324091734 63 71 0.0 3.0 0.00 0.00 0.00 39 1022.9
20190324090146 60 69 0.0 2.0 0.00 0.00 0.00 42 1022.8
20190324084605 57 69 0.0 1.0 0.00 0.00 0.00 45 1022.8
20190324083046 55 69 0.0 2.0 0.00 0.00 0.00 48 1022.8
20190324081539 52 69 1.0 2.0 0.00 0.00 0.00 50 1022.8
20190324080110 50 69 0.0 2.0 0.00 0.00 0.00 53 1022.7
20190324074524 48 69 0.0 1.0 0.00 0.00 0.00 55 1022.6
20190324073055 45 69 0.0 0.0 0.00 0.00 0.00 56 1022.6
20190324071547 42 69 0.0 1.0 0.00 0.00 0.00 60 1022.6
20190324070058 40 69 0.0 2.0 0.00 0.00 0.00 64 1022.6
20190324064524 38 69 0.0 1.0 0.00 0.00 0.00 66 1022.5
20190324063026 38 69 0.0 1.0 0.00 0.00 0.00 66 1022.5
20190324061601 38 69 0.0 0.0 0.00 0.00 0.00 64 1022.4
20190324060010 38 69 0.0 0.0 0.00 0.00 0.00 64 1022.3
20190324054511 38 69 0.0 0.0 0.00 0.00 0.00 63 1022.4
20190324053006 38 69 0.0 0.0 0.00 0.00 0.00 62 1022.2
20190324051504 38 69 0.0 0.0 0.00 0.00 0.00 61 1022.3
20190324044700 38 69 0.0 1.0 0.00 0.00 0.00 60 1022.3
20190324043138 38 69 0.0 2.0 0.00 0.00 0.00 60 1022.2
20190324041646 38 69 0.0 0.0 0.00 0.00 0.00 60 1022.2
20190324040137 39 69 0.0 0.0 0.00 0.00 0.00 59 1022.3
20190324034651 39 69 0.0 0.0 0.00 0.00 0.00 58 1022.2
20190324033117 39 69 0.0 0.0 0.00 0.00 0.00 57 1022.2